sensor_id;sensor_type;location;lat;lon;timestamp;pressure;altitude;pressure_sealevel;temperature;humidity
42859;BME280;28505;56.970;40.998;2023-12-07T00:00:16;102116.94;;;-13.51;100.00
42859;BME280;28505;56.970;40.998;2023-12-07T00:05:38;102122.34;;;-12.94;100.00
42859;BME280;28505;56.970;40.998;2023-12-07T00:11:00;102125.00;;;-12.65;100.00
42859;BME280;28505;56.970;40.998;2023-12-07T00:16:23;102122.63;;;-12.68;100.00
42859;BME280;28505;56.970;40.998;2023-12-07T00:21:45;102122.81;;;-12.43;100.00
42859;BME280;28505;56.970;40.998;2023-12-07T00:27:07;102124.47;;;-12.70;100.00
42859;BME280;28505;56.970;40.998;2023-12-07T00:32:32;102122.69;;;-13.00;100.00
42859;BME280;28505;56.970;40.998;2023-12-07T00:37:57;102130.44;;;-12.54;100.00
42859;BME280;28505;56.970;40.998;2023-12-07T00:43:19;102130.94;;;-13.08;100.00
42859;BME280;28505;56.970;40.998;2023-12-07T00:48:41;102125.31;;;-13.16;100.00
42859;BME280;28505;56.970;40.998;2023-12-07T00:54:03;102137.22;;;-12.82;100.00
42859;BME280;28505;56.970;40.998;2023-12-07T00:59:25;102137.31;;;-11.82;100.00
42859;BME280;28505;56.970;40.998;2023-12-07T01:04:47;102139.63;;;-12.79;100.00
42859;BME280;28505;56.970;40.998;2023-12-07T01:10:09;102146.38;;;-12.16;100.00
42859;BME280;28505;56.970;40.998;2023-12-07T01:15:34;102144.88;;;-12.64;100.00
42859;BME280;28505;56.970;40.998;2023-12-07T01:20:56;102149.50;;;-12.11;100.00
42859;BME280;28505;56.970;40.998;2023-12-07T01:26:18;102157.47;;;-12.73;100.00
42859;BME280;28505;56.970;40.998;2023-12-07T01:31:41;102161.25;;;-12.48;100.00
42859;BME280;28505;56.970;40.998;2023-12-07T01:37:05;102156.81;;;-12.76;100.00
42859;BME280;28505;56.970;40.998;2023-12-07T01:42:27;102161.78;;;-12.57;100.00
42859;BME280;28505;56.970;40.998;2023-12-07T01:47:51;102174.75;;;-12.27;100.00
42859;BME280;28505;56.970;40.998;2023-12-07T01:53:15;102174.44;;;-12.37;100.00
42859;BME280;28505;56.970;40.998;2023-12-07T01:58:38;102176.97;;;-12.35;100.00
42859;BME280;28505;56.970;40.998;2023-12-07T02:04:01;102175.78;;;-12.01;100.00
42859;BME280;28505;56.970;40.998;2023-12-07T02:09:23;102186.88;;;-12.42;100.00
42859;BME280;28505;56.970;40.998;2023-12-07T02:14:45;102189.69;;;-11.59;100.00
42859;BME280;28505;56.970;40.998;2023-12-07T02:25:36;102181.25;;;-12.64;100.00
42859;BME280;28505;56.970;40.998;2023-12-07T02:30:59;102187.91;;;-12.75;100.00
42859;BME280;28505;56.970;40.998;2023-12-07T02:36:24;102200.56;;;-12.68;100.00
42859;BME280;28505;56.970;40.998;2023-12-07T02:41:47;102200.25;;;-12.48;100.00
42859;BME280;28505;56.970;40.998;2023-12-07T02:47:10;102195.00;;;-12.04;100.00
42859;BME280;28505;56.970;40.998;2023-12-07T02:52:33;102202.53;;;-12.58;100.00
42859;BME280;28505;56.970;40.998;2023-12-07T02:57:56;102205.75;;;-12.68;100.00
42859;BME280;28505;56.970;40.998;2023-12-07T03:03:18;102219.63;;;-12.69;100.00
42859;BME280;28505;56.970;40.998;2023-12-07T03:08:40;102220.03;;;-12.31;100.00
42859;BME280;28505;56.970;40.998;2023-12-07T03:14:02;102227.38;;;-12.23;100.00
42859;BME280;28505;56.970;40.998;2023-12-07T03:19:25;102221.84;;;-11.74;100.00
42859;BME280;28505;56.970;40.998;2023-12-07T03:24:50;102229.25;;;-12.25;100.00
42859;BME280;28505;56.970;40.998;2023-12-07T03:30:13;102236.81;;;-12.67;100.00
42859;BME280;28505;56.970;40.998;2023-12-07T03:35:38;102239.59;;;-12.10;100.00
42859;BME280;28505;56.970;40.998;2023-12-07T03:41:00;102247.72;;;-11.86;100.00
42859;BME280;28505;56.970;40.998;2023-12-07T03:46:22;102240.91;;;-12.33;100.00
42859;BME280;28505;56.970;40.998;2023-12-07T03:51:44;102251.41;;;-11.75;100.00
42859;BME280;28505;56.970;40.998;2023-12-07T03:57:06;102248.94;;;-12.52;100.00
42859;BME280;28505;56.970;40.998;2023-12-07T04:02:28;102262.56;;;-11.45;100.00
42859;BME280;28505;56.970;40.998;2023-12-07T04:07:54;102262.47;;;-12.31;100.00
42859;BME280;28505;56.970;40.998;2023-12-07T04:13:16;102247.09;;;-12.65;100.00
42859;BME280;28505;56.970;40.998;2023-12-07T04:18:40;102248.53;;;-11.85;100.00
42859;BME280;28505;56.970;40.998;2023-12-07T04:24:02;102252.38;;;-12.21;100.00
42859;BME280;28505;56.970;40.998;2023-12-07T04:29:24;102265.00;;;-12.29;100.00
42859;BME280;28505;56.970;40.998;2023-12-07T04:34:46;102257.41;;;-12.48;100.00
42859;BME280;28505;56.970;40.998;2023-12-07T04:40:09;102265.72;;;-12.27;100.00
42859;BME280;28505;56.970;40.998;2023-12-07T04:45:32;102268.31;;;-12.57;100.00
42859;BME280;28505;56.970;40.998;2023-12-07T04:50:59;102265.09;;;-12.16;100.00
42859;BME280;28505;56.970;40.998;2023-12-07T04:56:22;102277.94;;;-12.59;100.00
42859;BME280;28505;56.970;40.998;2023-12-07T05:01:47;102278.97;;;-12.78;100.00
42859;BME280;28505;56.970;40.998;2023-12-07T05:07:09;102294.81;;;-12.66;100.00
42859;BME280;28505;56.970;40.998;2023-12-07T05:12:34;102303.09;;;-12.76;100.00
42859;BME280;28505;56.970;40.998;2023-12-07T05:17:57;102310.97;;;-12.77;100.00
42859;BME280;28505;56.970;40.998;2023-12-07T05:23:19;102319.94;;;-12.51;100.00
42859;BME280;28505;56.970;40.998;2023-12-07T05:28:41;102319.94;;;-12.51;100.00
42859;BME280;28505;56.970;40.998;2023-12-07T05:34:04;102321.03;;;-12.55;100.00
42859;BME280;28505;56.970;40.998;2023-12-07T05:39:27;102324.72;;;-12.59;100.00
42859;BME280;28505;56.970;40.998;2023-12-07T05:44:49;102332.34;;;-12.56;100.00
42859;BME280;28505;56.970;40.998;2023-12-07T05:50:12;102329.34;;;-12.64;100.00
42859;BME280;28505;56.970;40.998;2023-12-07T05:55:34;102325.81;;;-12.17;100.00
42859;BME280;28505;56.970;40.998;2023-12-07T06:01:00;102335.19;;;-12.61;100.00
42859;BME280;28505;56.970;40.998;2023-12-07T06:06:23;102343.66;;;-12.73;100.00
42859;BME280;28505;56.970;40.998;2023-12-07T06:11:45;102343.47;;;-12.86;100.00
42859;BME280;28505;56.970;40.998;2023-12-07T06:17:07;102345.16;;;-12.69;100.00
42859;BME280;28505;56.970;40.998;2023-12-07T06:22:30;102335.09;;;-12.59;100.00
42859;BME280;28505;56.970;40.998;2023-12-07T06:27:52;102357.66;;;-12.60;100.00
42859;BME280;28505;56.970;40.998;2023-12-07T06:33:15;102359.09;;;-12.54;100.00
42859;BME280;28505;56.970;40.998;2023-12-07T06:38:38;102355.16;;;-12.45;100.00
42859;BME280;28505;56.970;40.998;2023-12-07T06:44:00;102360.91;;;-12.72;100.00
42859;BME280;28505;56.970;40.998;2023-12-07T06:49:22;102370.41;;;-12.71;100.00
42859;BME280;28505;56.970;40.998;2023-12-07T06:54:54;102372.00;;;-12.68;100.00
42859;BME280;28505;56.970;40.998;2023-12-07T07:00:17;102375.25;;;-12.49;100.00
42859;BME280;28505;56.970;40.998;2023-12-07T07:05:40;102368.81;;;-12.42;100.00
42859;BME280;28505;56.970;40.998;2023-12-07T07:11:12;102378.19;;;-12.55;100.00
42859;BME280;28505;56.970;40.998;2023-12-07T07:16:35;102383.41;;;-12.55;100.00
42859;BME280;28505;56.970;40.998;2023-12-07T07:21:57;102379.03;;;-12.39;100.00
42859;BME280;28505;56.970;40.998;2023-12-07T07:27:19;102382.88;;;-12.30;100.00
42859;BME280;28505;56.970;40.998;2023-12-07T07:32:41;102393.28;;;-12.46;100.00
42859;BME280;28505;56.970;40.998;2023-12-07T07:38:03;102399.31;;;-12.30;100.00
42859;BME280;28505;56.970;40.998;2023-12-07T07:43:26;102394.03;;;-12.28;100.00
42859;BME280;28505;56.970;40.998;2023-12-07T07:48:48;102402.00;;;-12.47;100.00
42859;BME280;28505;56.970;40.998;2023-12-07T07:54:10;102404.13;;;-11.92;100.00
42859;BME280;28505;56.970;40.998;2023-12-07T07:59:33;102398.81;;;-12.36;100.00
42859;BME280;28505;56.970;40.998;2023-12-07T08:04:55;102411.72;;;-12.51;100.00
42859;BME280;28505;56.970;40.998;2023-12-07T08:10:17;102414.16;;;-12.32;100.00
42859;BME280;28505;56.970;40.998;2023-12-07T08:15:40;102405.88;;;-12.22;100.00
42859;BME280;28505;56.970;40.998;2023-12-07T08:21:04;102399.47;;;-12.17;100.00
42859;BME280;28505;56.970;40.998;2023-12-07T08:26:29;102402.88;;;-12.00;100.00
42859;BME280;28505;56.970;40.998;2023-12-07T08:31:51;102401.63;;;-11.93;100.00
42859;BME280;28505;56.970;40.998;2023-12-07T08:37:14;102397.91;;;-12.19;100.00
42859;BME280;28505;56.970;40.998;2023-12-07T08:42:39;102408.88;;;-11.54;100.00
42859;BME280;28505;56.970;40.998;2023-12-07T08:48:01;102418.56;;;-11.72;100.00
42859;BME280;28505;56.970;40.998;2023-12-07T08:53:23;102410.63;;;-11.99;100.00
42859;BME280;28505;56.970;40.998;2023-12-07T08:58:45;102419.41;;;-12.01;100.00
42859;BME280;28505;56.970;40.998;2023-12-07T09:04:07;102421.16;;;-11.42;100.00
42859;BME280;28505;56.970;40.998;2023-12-07T09:09:30;102426.59;;;-11.30;100.00
42859;BME280;28505;56.970;40.998;2023-12-07T09:14:51;102424.88;;;-11.32;100.00
42859;BME280;28505;56.970;40.998;2023-12-07T09:20:14;102421.38;;;-11.16;100.00
42859;BME280;28505;56.970;40.998;2023-12-07T09:25:36;102408.91;;;-12.00;100.00
42859;BME280;28505;56.970;40.998;2023-12-07T09:30:59;102423.72;;;-11.56;100.00
42859;BME280;28505;56.970;40.998;2023-12-07T09:36:20;102421.22;;;-11.88;100.00
42859;BME280;28505;56.970;40.998;2023-12-07T09:41:43;102407.84;;;-11.96;100.00
42859;BME280;28505;56.970;40.998;2023-12-07T09:47:12;102410.63;;;-12.31;100.00
42859;BME280;28505;56.970;40.998;2023-12-07T09:52:36;102414.06;;;-12.46;100.00
42859;BME280;28505;56.970;40.998;2023-12-07T09:57:58;102415.22;;;-12.04;100.00
42859;BME280;28505;56.970;40.998;2023-12-07T10:03:21;102416.50;;;-12.27;100.00
42859;BME280;28505;56.970;40.998;2023-12-07T10:08:45;102425.78;;;-11.91;100.00
42859;BME280;28505;56.970;40.998;2023-12-07T10:14:09;102419.03;;;-12.90;100.00
42859;BME280;28505;56.970;40.998;2023-12-07T10:19:31;102419.75;;;-12.39;100.00
42859;BME280;28505;56.970;40.998;2023-12-07T10:24:53;102433.81;;;-11.36;100.00
42859;BME280;28505;56.970;40.998;2023-12-07T10:30:18;102420.03;;;-12.12;100.00
42859;BME280;28505;56.970;40.998;2023-12-07T10:35:46;102431.47;;;-12.00;100.00
42859;BME280;28505;56.970;40.998;2023-12-07T10:41:12;102428.88;;;-12.00;100.00
42859;BME280;28505;56.970;40.998;2023-12-07T10:46:39;102428.16;;;-12.50;100.00
42859;BME280;28505;56.970;40.998;2023-12-07T10:52:07;102426.22;;;-12.31;100.00
42859;BME280;28505;56.970;40.998;2023-12-07T10:57:33;102416.50;;;-12.43;100.00
42859;BME280;28505;56.970;40.998;2023-12-07T11:02:56;102433.53;;;-11.75;100.00
42859;BME280;28505;56.970;40.998;2023-12-07T11:08:32;102426.06;;;-12.43;100.00
42859;BME280;28505;56.970;40.998;2023-12-07T11:14:05;102431.78;;;-12.86;100.00
42859;BME280;28505;56.970;40.998;2023-12-07T11:25:03;102438.81;;;-12.88;100.00
42859;BME280;28505;56.970;40.998;2023-12-07T11:30:27;102440.53;;;-12.71;100.00
42859;BME280;28505;56.970;40.998;2023-12-07T11:36:03;102436.81;;;-13.16;100.00
42859;BME280;28505;56.970;40.998;2023-12-07T11:41:29;102437.06;;;-13.21;100.00
42859;BME280;28505;56.970;40.998;2023-12-07T11:46:51;102432.97;;;-13.42;100.00
42859;BME280;28505;56.970;40.998;2023-12-07T11:52:19;102442.22;;;-13.36;100.00
42859;BME280;28505;56.970;40.998;2023-12-07T11:57:42;102439.28;;;-13.48;100.00
42859;BME280;28505;56.970;40.998;2023-12-07T12:03:05;102449.28;;;-13.57;100.00
42859;BME280;28505;56.970;40.998;2023-12-07T12:08:27;102446.09;;;-13.62;100.00
42859;BME280;28505;56.970;40.998;2023-12-07T12:13:49;102452.91;;;-13.60;100.00
42859;BME280;28505;56.970;40.998;2023-12-07T12:19:14;102455.16;;;-13.54;100.00
42859;BME280;28505;56.970;40.998;2023-12-07T12:24:48;102450.88;;;-13.72;100.00
42859;BME280;28505;56.970;40.998;2023-12-07T12:30:11;102461.97;;;-13.51;100.00
42859;BME280;28505;56.970;40.998;2023-12-07T12:35:35;102462.34;;;-13.76;100.00
42859;BME280;28505;56.970;40.998;2023-12-07T12:40:57;102463.22;;;-13.77;100.00
42859;BME280;28505;56.970;40.998;2023-12-07T12:46:22;102466.78;;;-13.80;100.00
42859;BME280;28505;56.970;40.998;2023-12-07T12:51:44;102480.09;;;-13.86;100.00
42859;BME280;28505;56.970;40.998;2023-12-07T12:57:07;102478.66;;;-13.93;100.00
42859;BME280;28505;56.970;40.998;2023-12-07T13:02:29;102474.09;;;-14.05;100.00
42859;BME280;28505;56.970;40.998;2023-12-07T13:07:52;102482.34;;;-14.16;100.00
42859;BME280;28505;56.970;40.998;2023-12-07T13:13:34;102483.19;;;-14.16;100.00
42859;BME280;28505;56.970;40.998;2023-12-07T13:18:56;102472.66;;;-14.12;100.00
42859;BME280;28505;56.970;40.998;2023-12-07T13:24:18;102478.53;;;-13.90;100.00
42859;BME280;28505;56.970;40.998;2023-12-07T13:29:40;102480.88;;;-14.22;100.00
42859;BME280;28505;56.970;40.998;2023-12-07T13:35:04;102482.66;;;-14.22;100.00
42859;BME280;28505;56.970;40.998;2023-12-07T13:40:29;102473.66;;;-14.34;100.00
42859;BME280;28505;56.970;40.998;2023-12-07T13:45:51;102478.44;;;-14.25;100.00
42859;BME280;28505;56.970;40.998;2023-12-07T13:51:14;102486.63;;;-14.15;100.00
42859;BME280;28505;56.970;40.998;2023-12-07T13:56:36;102481.28;;;-14.50;100.00
42859;BME280;28505;56.970;40.998;2023-12-07T14:01:58;102482.06;;;-14.48;100.00
42859;BME280;28505;56.970;40.998;2023-12-07T14:07:21;102497.13;;;-14.56;100.00
42859;BME280;28505;56.970;40.998;2023-12-07T14:12:46;102492.31;;;-14.64;100.00
42859;BME280;28505;56.970;40.998;2023-12-07T14:18:08;102502.81;;;-14.48;100.00
42859;BME280;28505;56.970;40.998;2023-12-07T14:23:30;102494.75;;;-14.60;100.00
42859;BME280;28505;56.970;40.998;2023-12-07T14:28:53;102498.81;;;-14.74;100.00
42859;BME280;28505;56.970;40.998;2023-12-07T14:34:15;102504.13;;;-14.77;100.00
42859;BME280;28505;56.970;40.998;2023-12-07T14:39:47;102522.09;;;-14.74;100.00
42859;BME280;28505;56.970;40.998;2023-12-07T14:45:10;102520.69;;;-14.81;100.00
42859;BME280;28505;56.970;40.998;2023-12-07T14:50:32;102525.78;;;-14.79;100.00
42859;BME280;28505;56.970;40.998;2023-12-07T14:55:54;102519.66;;;-14.77;100.00
42859;BME280;28505;56.970;40.998;2023-12-07T15:01:19;102529.59;;;-14.88;100.00
42859;BME280;28505;56.970;40.998;2023-12-07T15:06:43;102522.22;;;-14.77;100.00
42859;BME280;28505;56.970;40.998;2023-12-07T15:12:09;102508.97;;;-14.90;100.00
42859;BME280;28505;56.970;40.998;2023-12-07T15:17:32;102520.69;;;-15.01;100.00
42859;BME280;28505;56.970;40.998;2023-12-07T15:22:54;102537.25;;;-15.05;100.00
42859;BME280;28505;56.970;40.998;2023-12-07T15:28:16;102539.16;;;-15.11;100.00
42859;BME280;28505;56.970;40.998;2023-12-07T15:33:38;102537.13;;;-15.02;100.00
42859;BME280;28505;56.970;40.998;2023-12-07T15:39:01;102552.53;;;-14.99;100.00
42859;BME280;28505;56.970;40.998;2023-12-07T15:44:24;102548.75;;;-15.13;100.00
42859;BME280;28505;56.970;40.998;2023-12-07T15:49:50;102537.31;;;-15.07;100.00
42859;BME280;28505;56.970;40.998;2023-12-07T15:55:13;102548.88;;;-15.16;100.00
42859;BME280;28505;56.970;40.998;2023-12-07T16:00:38;102553.16;;;-15.15;100.00
42859;BME280;28505;56.970;40.998;2023-12-07T16:06:00;102547.72;;;-15.08;100.00
42859;BME280;28505;56.970;40.998;2023-12-07T16:11:23;102551.84;;;-15.25;100.00
42859;BME280;28505;56.970;40.998;2023-12-07T16:16:45;102555.34;;;-15.26;100.00
42859;BME280;28505;56.970;40.998;2023-12-07T16:22:07;102563.63;;;-15.18;100.00
42859;BME280;28505;56.970;40.998;2023-12-07T16:27:29;102554.44;;;-15.25;100.00
42859;BME280;28505;56.970;40.998;2023-12-07T16:32:51;102556.84;;;-15.20;100.00
42859;BME280;28505;56.970;40.998;2023-12-07T16:38:13;102562.69;;;-15.37;100.00
42859;BME280;28505;56.970;40.998;2023-12-07T16:43:37;102563.03;;;-15.24;100.00
42859;BME280;28505;56.970;40.998;2023-12-07T16:48:59;102568.16;;;-15.23;100.00
42859;BME280;28505;56.970;40.998;2023-12-07T16:54:21;102561.19;;;-15.43;100.00
42859;BME280;28505;56.970;40.998;2023-12-07T16:59:43;102566.19;;;-15.38;100.00
42859;BME280;28505;56.970;40.998;2023-12-07T17:05:06;102563.78;;;-15.43;100.00
42859;BME280;28505;56.970;40.998;2023-12-07T17:10:28;102568.38;;;-15.49;100.00
42859;BME280;28505;56.970;40.998;2023-12-07T17:15:51;102570.34;;;-15.56;100.00
42859;BME280;28505;56.970;40.998;2023-12-07T17:21:19;102576.75;;;-15.44;100.00
42859;BME280;28505;56.970;40.998;2023-12-07T17:26:41;102568.72;;;-15.59;100.00
42859;BME280;28505;56.970;40.998;2023-12-07T17:32:14;102568.25;;;-15.68;100.00
42859;BME280;28505;56.970;40.998;2023-12-07T17:37:36;102577.22;;;-15.57;100.00
42859;BME280;28505;56.970;40.998;2023-12-07T17:42:58;102590.25;;;-15.80;100.00
42859;BME280;28505;56.970;40.998;2023-12-07T17:48:20;102588.16;;;-15.70;100.00
42859;BME280;28505;56.970;40.998;2023-12-07T17:53:42;102572.81;;;-15.75;100.00
42859;BME280;28505;56.970;40.998;2023-12-07T17:59:05;102578.13;;;-15.78;100.00
42859;BME280;28505;56.970;40.998;2023-12-07T18:04:27;102578.81;;;-15.96;100.00
42859;BME280;28505;56.970;40.998;2023-12-07T18:09:51;102591.94;;;-16.02;100.00
42859;BME280;28505;56.970;40.998;2023-12-07T18:15:18;102585.41;;;-15.89;100.00
42859;BME280;28505;56.970;40.998;2023-12-07T18:20:40;102571.84;;;-15.94;100.00
42859;BME280;28505;56.970;40.998;2023-12-07T18:26:04;102575.69;;;-16.04;100.00
42859;BME280;28505;56.970;40.998;2023-12-07T18:31:30;102574.47;;;-15.96;100.00
42859;BME280;28505;56.970;40.998;2023-12-07T18:36:52;102575.72;;;-16.06;100.00
42859;BME280;28505;56.970;40.998;2023-12-07T18:42:14;102585.16;;;-16.05;100.00
42859;BME280;28505;56.970;40.998;2023-12-07T18:47:36;102583.31;;;-16.01;100.00
42859;BME280;28505;56.970;40.998;2023-12-07T18:52:59;102589.13;;;-15.96;100.00
42859;BME280;28505;56.970;40.998;2023-12-07T18:58:22;102582.50;;;-16.03;100.00
42859;BME280;28505;56.970;40.998;2023-12-07T19:03:45;102577.56;;;-16.10;100.00
42859;BME280;28505;56.970;40.998;2023-12-07T19:09:10;102573.53;;;-15.93;100.00
42859;BME280;28505;56.970;40.998;2023-12-07T19:14:32;102577.78;;;-15.92;100.00
42859;BME280;28505;56.970;40.998;2023-12-07T19:19:54;102573.53;;;-15.93;100.00
42859;BME280;28505;56.970;40.998;2023-12-07T19:25:16;102583.00;;;-15.94;100.00
42859;BME280;28505;56.970;40.998;2023-12-07T19:30:38;102581.38;;;-15.96;100.00
42859;BME280;28505;56.970;40.998;2023-12-07T19:36:01;102583.84;;;-15.93;100.00
42859;BME280;28505;56.970;40.998;2023-12-07T19:41:24;102575.56;;;-16.01;100.00
42859;BME280;28505;56.970;40.998;2023-12-07T19:46:46;102580.44;;;-15.94;100.00
42859;BME280;28505;56.970;40.998;2023-12-07T19:52:08;102587.22;;;-15.91;100.00
42859;BME280;28505;56.970;40.998;2023-12-07T19:57:35;102588.69;;;-16.08;100.00
42859;BME280;28505;56.970;40.998;2023-12-07T20:03:04;102599.31;;;-15.92;100.00
42859;BME280;28505;56.970;40.998;2023-12-07T20:08:26;102604.25;;;-16.09;100.00
42859;BME280;28505;56.970;40.998;2023-12-07T20:13:49;102603.25;;;-16.05;100.00
42859;BME280;28505;56.970;40.998;2023-12-07T20:19:11;102602.78;;;-16.16;100.00
42859;BME280;28505;56.970;40.998;2023-12-07T20:24:34;102600.28;;;-16.18;100.00
42859;BME280;28505;56.970;40.998;2023-12-07T20:29:56;102608.75;;;-15.91;100.00
42859;BME280;28505;56.970;40.998;2023-12-07T20:35:18;102599.66;;;-16.24;100.00
42859;BME280;28505;56.970;40.998;2023-12-07T20:40:40;102601.16;;;-16.19;100.00
42859;BME280;28505;56.970;40.998;2023-12-07T20:46:05;102611.38;;;-16.16;100.00
42859;BME280;28505;56.970;40.998;2023-12-07T20:51:28;102615.09;;;-16.23;100.00
42859;BME280;28505;56.970;40.998;2023-12-07T20:56:51;102604.59;;;-16.18;100.00
42859;BME280;28505;56.970;40.998;2023-12-07T21:02:13;102610.59;;;-16.18;100.00
42859;BME280;28505;56.970;40.998;2023-12-07T21:07:44;102616.63;;;-16.17;100.00
42859;BME280;28505;56.970;40.998;2023-12-07T21:13:06;102615.47;;;-15.87;100.00
42859;BME280;28505;56.970;40.998;2023-12-07T21:18:28;102618.28;;;-16.16;100.00
42859;BME280;28505;56.970;40.998;2023-12-07T21:23:51;102616.94;;;-16.03;100.00
42859;BME280;28505;56.970;40.998;2023-12-07T21:29:13;102622.00;;;-16.23;100.00
42859;BME280;28505;56.970;40.998;2023-12-07T21:34:38;102628.63;;;-16.16;100.00
42859;BME280;28505;56.970;40.998;2023-12-07T21:40:02;102642.34;;;-16.14;100.00
42859;BME280;28505;56.970;40.998;2023-12-07T21:45:25;102638.31;;;-16.23;100.00
42859;BME280;28505;56.970;40.998;2023-12-07T21:50:47;102634.06;;;-16.24;100.00
42859;BME280;28505;56.970;40.998;2023-12-07T21:56:10;102628.50;;;-16.37;100.00
42859;BME280;28505;56.970;40.998;2023-12-07T22:01:33;102632.72;;;-16.34;100.00
42859;BME280;28505;56.970;40.998;2023-12-07T22:06:56;102641.94;;;-16.27;100.00
42859;BME280;28505;56.970;40.998;2023-12-07T22:12:18;102637.16;;;-16.38;100.00
42859;BME280;28505;56.970;40.998;2023-12-07T22:17:40;102633.59;;;-16.35;100.00
42859;BME280;28505;56.970;40.998;2023-12-07T22:23:02;102635.41;;;-16.37;100.00
42859;BME280;28505;56.970;40.998;2023-12-07T22:28:25;102631.19;;;-16.40;100.00
42859;BME280;28505;56.970;40.998;2023-12-07T22:33:47;102632.00;;;-16.39;100.00
42859;BME280;28505;56.970;40.998;2023-12-07T22:39:21;102628.81;;;-16.46;100.00
42859;BME280;28505;56.970;40.998;2023-12-07T22:44:43;102631.28;;;-16.43;100.00
42859;BME280;28505;56.970;40.998;2023-12-07T22:50:05;102630.59;;;-16.48;100.00
42859;BME280;28505;56.970;40.998;2023-12-07T22:55:27;102630.22;;;-16.37;100.00
42859;BME280;28505;56.970;40.998;2023-12-07T23:00:49;102628.38;;;-16.59;100.00
42859;BME280;28505;56.970;40.998;2023-12-07T23:06:13;102637.59;;;-16.52;100.00
42859;BME280;28505;56.970;40.998;2023-12-07T23:11:35;102638.88;;;-16.63;100.00
42859;BME280;28505;56.970;40.998;2023-12-07T23:16:58;102643.75;;;-16.56;100.00
42859;BME280;28505;56.970;40.998;2023-12-07T23:22:20;102635.28;;;-16.84;100.00
42859;BME280;28505;56.970;40.998;2023-12-07T23:27:42;102642.06;;;-16.80;100.00
42859;BME280;28505;56.970;40.998;2023-12-07T23:33:04;102643.03;;;-16.84;100.00
42859;BME280;28505;56.970;40.998;2023-12-07T23:38:27;102652.56;;;-16.86;100.00
42859;BME280;28505;56.970;40.998;2023-12-07T23:43:49;102654.72;;;-17.01;100.00
42859;BME280;28505;56.970;40.998;2023-12-07T23:49:11;102647.34;;;-17.11;100.00
42859;BME280;28505;56.970;40.998;2023-12-07T23:54:33;102661.16;;;-17.12;100.00
42859;BME280;28505;56.970;40.998;2023-12-07T23:59:56;102662.88;;;-17.13;100.00
